Time;durP1;ratioP1;P1;durP2;ratioP2;P2;SDS_P1;SDS_P2;PMS_P1;PMS_P2;Temp;Humidity;BMP_temperature;BMP_pressure;BME280_temperature;BME280_humidity;BME280_pressure;Samples;Min_cycle;Max_cycle;Signal;HPM_P1;HPM_P2
2021/08/01 00:00:50;;;;;;;8.38;3.80;;;17.10;99.90;;;;;;5013924;28;20169;-80
2021/08/01 00:03:16;;;;;;;9.82;3.72;;;17.00;99.90;;;;;;5013742;28;20215;-79
2021/08/01 00:05:43;;;;;;;9.95;3.55;;;16.90;99.90;;;;;;5015042;28;20196;-79
2021/08/01 00:08:09;;;;;;;6.40;3.90;;;17.10;99.90;;;;;;5015442;28;20157;-79
2021/08/01 00:10:34;;;;;;;5.28;3.55;;;17.20;99.90;;;;;;5015479;28;20215;-79
2021/08/01 00:13:01;;;;;;;8.13;3.88;;;17.10;99.90;;;;;;5015363;28;20227;-79
2021/08/01 00:15:27;;;;;;;5.60;3.70;;;17.20;99.90;;;;;;5014275;28;20193;-79
2021/08/01 00:17:52;;;;;;;11.90;3.78;;;17.00;99.90;;;;;;5015375;28;20176;-79
2021/08/01 00:20:18;;;;;;;7.60;3.85;;;17.00;99.90;;;;;;5015276;28;20251;-79
2021/08/01 00:22:44;;;;;;;4.00;3.47;;;17.00;99.90;;;;;;5015395;28;20169;-80
2021/08/01 00:25:10;;;;;;;6.63;3.92;;;17.00;99.90;;;;;;5015297;28;20211;-79
2021/08/01 00:27:36;;;;;;;7.50;4.13;;;17.10;99.90;;;;;;5014925;28;20176;-79
2021/08/01 00:30:04;;;;;;;5.38;3.67;;;17.00;99.90;;;;;;5013896;28;20250;-79
2021/08/01 00:32:29;;;;;;;7.32;3.92;;;17.00;99.90;;;;;;5013582;28;20206;-79
2021/08/01 00:34:55;;;;;;;11.23;4.30;;;16.80;99.90;;;;;;5013609;28;20275;-80
2021/08/01 00:37:20;;;;;;;6.72;3.92;;;16.80;99.90;;;;;;5014997;28;20169;-79
2021/08/01 00:39:46;;;;;;;9.02;4.35;;;16.70;99.90;;;;;;5014629;28;20633;-78
2021/08/01 00:42:12;;;;;;;7.10;4.00;;;16.80;99.90;;;;;;5015567;28;20164;-79
2021/08/01 00:44:37;;;;;;;5.57;5.03;;;17.00;99.90;;;;;;5014792;28;20172;-79
2021/08/01 00:47:04;;;;;;;6.80;4.28;;;16.90;99.90;;;;;;5014738;28;20192;-79
2021/08/01 00:49:30;;;;;;;9.90;4.20;;;16.70;99.90;;;;;;5013535;28;20173;-79
2021/08/01 00:51:56;;;;;;;6.57;4.43;;;16.50;99.90;;;;;;5013128;28;20561;-79
2021/08/01 00:54:25;;;;;;;6.07;3.60;;;16.30;99.90;;;;;;5014212;28;20235;-78
2021/08/01 00:56:50;;;;;;;7.32;3.97;;;16.40;99.90;;;;;;5012702;28;20219;-83
2021/08/01 00:59:17;;;;;;;7.07;4.15;;;16.50;99.90;;;;;;5014149;28;20651;-80
2021/08/01 01:01:56;;;;;;;12.00;3.75;;;16.50;99.90;;;;;;5014357;28;20169;-79
2021/08/01 01:04:36;;;;;;;7.40;4.60;;;16.40;99.90;;;;;;5014323;28;20160;-79
2021/08/01 01:07:25;;;;;;;6.35;4.25;;;16.10;99.90;;;;;;5012913;28;20192;-79
2021/08/01 01:10:00;;;;;;;13.00;4.55;;;16.20;99.90;;;;;;5013991;28;20251;-78
2021/08/01 01:12:41;;;;;;;17.33;4.28;;;16.10;99.90;;;;;;5013839;28;20180;-78
2021/08/01 01:15:12;;;;;;;13.35;4.25;;;16.30;99.90;;;;;;5012867;28;20684;-78
2021/08/01 01:17:41;;;;;;;10.55;4.75;;;16.30;99.90;;;;;;5014291;28;20218;-80
2021/08/01 01:20:29;;;;;;;13.35;4.65;;;16.40;99.90;;;;;;5018540;28;20169;-79
2021/08/01 01:23:13;;;;;;;18.85;4.28;;;16.30;99.90;;;;;;5021106;28;20236;-77
2021/08/01 01:26:00;;;;;;;10.40;5.18;;;16.40;99.90;;;;;;5020971;28;20216;-77
2021/08/01 01:28:47;;;;;;;6.00;4.25;;;16.30;99.90;;;;;;5013819;28;20633;-79
2021/08/01 01:31:16;;;;;;;13.90;5.43;;;16.10;99.90;;;;;;5012486;28;20219;-79
2021/08/01 01:34:13;;;;;;;4.82;4.35;;;16.20;99.90;;;;;;5013594;28;20168;-79
2021/08/01 01:36:42;;;;;;;11.68;4.82;;;16.20;99.90;;;;;;4999486;28;20354;-80
2021/08/01 01:39:08;;;;;;;18.60;4.60;;;16.00;99.90;;;;;;5013612;28;20180;-78
2021/08/01 01:41:36;;;;;;;10.82;5.15;;;15.90;99.90;;;;;;5012471;28;20168;-79
2021/08/01 01:44:04;;;;;;;7.80;4.72;;;15.80;99.90;;;;;;5013712;28;20645;-78
2021/08/01 01:46:30;;;;;;;10.75;5.72;;;15.70;99.90;;;;;;5013634;28;20185;-79
2021/08/01 01:48:57;;;;;;;9.85;6.15;;;15.70;99.90;;;;;;5013698;28;20229;-78
2021/08/01 01:51:22;;;;;;;9.98;4.85;;;15.80;99.90;;;;;;5011975;28;20208;-78
2021/08/01 01:53:49;;;;;;;5.28;4.65;;;15.90;99.90;;;;;;5012454;28;20217;-78
2021/08/01 01:56:15;;;;;;;6.30;5.07;;;16.00;99.90;;;;;;5013254;28;20239;-78
2021/08/01 01:58:42;;;;;;;10.93;5.15;;;16.00;99.90;;;;;;5011973;28;20580;-78
2021/08/01 02:01:08;;;;;;;6.20;5.03;;;15.90;99.90;;;;;;5013992;28;20175;-79
2021/08/01 02:03:34;;;;;;;13.07;4.43;;;16.00;99.90;;;;;;5011958;28;20168;-78
2021/08/01 02:06:00;;;;;;;10.90;4.75;;;15.90;99.90;;;;;;5013849;28;20553;-79
2021/08/01 02:08:32;;;;;;;10.48;5.20;;;16.00;99.90;;;;;;5011427;28;20172;-79
2021/08/01 02:10:59;;;;;;;9.77;4.63;;;16.00;99.90;;;;;;5013200;28;20204;-79
2021/08/01 02:13:35;;;;;;;7.93;4.45;;;16.10;99.90;;;;;;5013448;28;20168;-78
2021/08/01 02:16:03;;;;;;;8.23;4.63;;;16.10;99.90;;;;;;5013013;28;20226;-78
2021/08/01 02:18:47;;;;;;;29.65;4.68;;;16.10;99.90;;;;;;5013179;28;20175;-79
2021/08/01 02:21:13;;;;;;;11.55;4.53;;;16.00;99.90;;;;;;5013643;28;20164;-78
2021/08/01 02:23:45;;;;;;;10.73;5.20;;;16.20;99.90;;;;;;5013382;28;20574;-79
2021/08/01 02:26:12;;;;;;;10.02;5.38;;;16.10;99.90;;;;;;5012565;28;20656;-79
2021/08/01 02:28:40;;;;;;;15.45;4.60;;;16.10;99.90;;;;;;5011572;28;20179;-79
2021/08/01 02:31:06;;;;;;;9.82;3.88;;;16.00;99.90;;;;;;5012835;28;20212;-78
2021/08/01 02:33:33;;;;;;;7.30;4.25;;;15.90;99.90;;;;;;5011684;28;20702;-78
2021/08/01 02:36:03;;;;;;;7.35;4.07;;;15.90;99.90;;;;;;5011480;28;20215;-79
2021/08/01 02:38:29;;;;;;;9.38;4.60;;;16.10;99.90;;;;;;5012916;28;20165;-78
2021/08/01 02:40:59;;;;;;;8.18;4.53;;;16.20;99.90;;;;;;5012792;28;20604;-79
2021/08/01 02:43:27;;;;;;;6.65;4.38;;;16.40;99.90;;;;;;5012801;28;20227;-78
2021/08/01 02:45:53;;;;;;;8.65;3.83;;;16.50;99.90;;;;;;5012798;28;20314;-79
2021/08/01 02:48:22;;;;;;;10.38;3.97;;;16.40;99.90;;;;;;5012436;28;20156;-78
2021/08/01 02:50:54;;;;;;;7.70;4.03;;;16.20;99.90;;;;;;5011528;28;20687;-78
2021/08/01 02:53:22;;;;;;;12.55;4.63;;;16.30;99.90;;;;;;5011354;28;20546;-79
2021/08/01 02:55:51;;;;;;;6.90;4.10;;;16.30;99.90;;;;;;5012733;28;20222;-78
2021/08/01 02:58:18;;;;;;;12.50;4.25;;;16.30;99.90;;;;;;5012516;28;20175;-78
2021/08/01 03:00:47;;;;;;;10.65;4.20;;;16.30;99.90;;;;;;5012521;28;20177;-78
2021/08/01 03:03:15;;;;;;;10.15;5.05;;;16.20;99.90;;;;;;5013483;28;20160;-80
2021/08/01 03:05:43;;;;;;;17.50;3.97;;;16.30;99.90;;;;;;5012838;28;20181;-78
2021/08/01 03:08:12;;;;;;;5.80;4.32;;;16.40;99.90;;;;;;5011819;28;20172;-80
2021/08/01 03:10:42;;;;;;;7.68;4.57;;;16.40;99.90;;;;;;5012859;28;20257;-79
2021/08/01 03:13:08;;;;;;;12.93;4.40;;;16.40;99.90;;;;;;5012920;28;20613;-79
2021/08/01 03:15:34;;;;;;;5.72;3.42;;;16.40;99.90;;;;;;5012595;28;20199;-81
2021/08/01 03:17:59;;;;;;;8.38;4.55;;;16.20;99.90;;;;;;5012811;28;20168;-78
2021/08/01 03:20:25;;;;;;;5.57;3.40;;;16.30;99.90;;;;;;5014858;28;20250;-79
2021/08/01 03:22:51;;;;;;;14.13;4.38;;;16.40;99.90;;;;;;5015314;28;20187;-79
2021/08/01 03:25:16;;;;;;;13.05;4.65;;;16.40;99.90;;;;;;5017007;28;20207;-79
2021/08/01 03:27:42;;;;;;;8.75;3.90;;;16.40;99.90;;;;;;5017160;28;20192;-80
2021/08/01 03:30:11;;;;;;;19.60;4.93;;;16.20;99.90;;;;;;5016965;28;20196;-78
2021/08/01 03:32:37;;;;;;;18.50;4.07;;;16.20;99.90;;;;;;5015132;28;20195;-80
2021/08/01 03:35:03;;;;;;;13.15;4.20;;;16.00;99.90;;;;;;5015481;28;20599;-79
2021/08/01 03:37:29;;;;;;;11.35;4.57;;;16.00;99.90;;;;;;5016381;28;20165;-78
2021/08/01 03:39:55;;;;;;;8.25;4.20;;;16.20;99.90;;;;;;5016409;28;20168;-79
2021/08/01 03:42:21;;;;;;;16.60;4.68;;;16.30;99.90;;;;;;5015813;28;20232;-78
2021/08/01 03:44:47;;;;;;;12.05;4.50;;;16.40;99.90;;;;;;5016282;28;20176;-79
2021/08/01 03:47:14;;;;;;;23.05;4.85;;;16.40;99.90;;;;;;5015859;28;20629;-79
2021/08/01 03:49:43;;;;;;;24.85;6.50;;;16.40;99.90;;;;;;5015106;28;20176;-79
2021/08/01 03:52:09;;;;;;;10.77;5.25;;;16.50;99.90;;;;;;5016210;28;20656;-80
2021/08/01 03:54:34;;;;;;;17.88;5.20;;;16.30;99.90;;;;;;5016132;28;20191;-79
2021/08/01 03:57:00;;;;;;;16.05;5.75;;;16.30;99.90;;;;;;5014259;28;20200;-79
2021/08/01 03:59:26;;;;;;;15.05;5.47;;;16.50;99.90;;;;;;5014555;28;20165;-80
2021/08/01 04:01:51;;;;;;;18.08;5.68;;;16.50;99.90;;;;;;5015988;28;20168;-79
2021/08/01 04:04:17;;;;;;;22.27;5.72;;;16.30;99.90;;;;;;5015123;28;20164;-79
2021/08/01 04:06:43;;;;;;;17.25;5.53;;;16.30;99.90;;;;;;5016714;28;20195;-79
2021/08/01 04:09:08;;;;;;;19.10;5.20;;;16.30;99.90;;;;;;5017152;28;20640;-80
2021/08/01 04:11:34;;;;;;;10.73;4.50;;;16.40;99.90;;;;;;5015584;28;20212;-80
2021/08/01 04:14:00;;;;;;;14.25;6.00;;;16.10;99.90;;;;;;5016428;28;20168;-79
2021/08/01 04:16:26;;;;;;;9.27;5.53;;;16.30;99.90;;;;;;5014620;28;20254;-79
2021/08/01 04:18:52;;;;;;;15.55;5.55;;;16.30;99.90;;;;;;5015681;28;20173;-81
2021/08/01 04:21:17;;;;;;;19.73;6.38;;;16.20;99.90;;;;;;5015290;28;20217;-79
2021/08/01 04:23:43;;;;;;;19.02;6.40;;;16.10;99.90;;;;;;5015078;28;20172;-78
2021/08/01 04:26:09;;;;;;;25.95;7.53;;;16.30;99.90;;;;;;5015856;28;20177;-80
2021/08/01 04:28:36;;;;;;;18.92;6.68;;;16.30;99.90;;;;;;5015551;28;20166;-80
2021/08/01 04:31:02;;;;;;;12.65;6.70;;;16.50;99.90;;;;;;5014239;28;20200;-79
2021/08/01 04:33:28;;;;;;;18.58;5.85;;;16.60;99.90;;;;;;5014100;28;20708;-80
2021/08/01 04:35:54;;;;;;;15.30;7.38;;;16.50;99.90;;;;;;4866682;28;20582;-76
2021/08/01 04:38:20;;;;;;;17.88;7.20;;;16.40;99.90;;;;;;4929994;28;20167;-79
2021/08/01 04:40:47;;;;;;;19.65;7.78;;;16.40;99.90;;;;;;5017423;28;20177;-78
2021/08/01 04:43:16;;;;;;;29.85;7.25;;;16.30;99.90;;;;;;5014882;28;20169;-80
2021/08/01 04:45:42;;;;;;;16.85;7.65;;;16.50;99.90;;;;;;5015828;28;20220;-80
2021/08/01 04:48:07;;;;;;;16.73;7.47;;;16.80;99.90;;;;;;5015680;28;20612;-78
2021/08/01 04:50:33;;;;;;;11.32;6.38;;;16.60;99.90;;;;;;5015487;28;20215;-79
2021/08/01 04:52:58;;;;;;;20.75;8.30;;;16.70;99.90;;;;;;5015871;28;20252;-79
2021/08/01 04:55:24;;;;;;;30.35;7.53;;;16.60;99.90;;;;;;5014144;28;20192;-79
2021/08/01 04:57:51;;;;;;;19.35;7.90;;;16.40;99.90;;;;;;5014727;28;20177;-79
2021/08/01 05:00:17;;;;;;;19.73;7.78;;;16.60;99.90;;;;;;5014659;28;20180;-80
2021/08/01 05:02:42;;;;;;;24.33;7.63;;;16.60;99.90;;;;;;5014656;28;20164;-79
2021/08/01 05:05:09;;;;;;;17.75;7.35;;;16.70;99.90;;;;;;5015027;28;20271;-81
2021/08/01 05:07:34;;;;;;;14.45;7.80;;;16.70;99.90;;;;;;5014022;28;20172;-79
2021/08/01 05:10:00;;;;;;;20.42;7.03;;;16.80;99.90;;;;;;5013738;28;20179;-80
2021/08/01 05:12:26;;;;;;;17.65;6.47;;;16.80;99.90;;;;;;5014802;28;20184;-79
2021/08/01 05:14:52;;;;;;;11.73;7.38;;;17.00;99.90;;;;;;5015052;28;20164;-80
2021/08/01 05:17:18;;;;;;;18.20;8.00;;;16.90;99.90;;;;;;5014894;28;20180;-79
2021/08/01 05:19:44;;;;;;;18.65;8.25;;;16.90;99.90;;;;;;5014767;28;20172;-80
2021/08/01 05:22:11;;;;;;;24.98;8.50;;;16.70;99.90;;;;;;5014504;28;20535;-80
2021/08/01 05:24:37;;;;;;;23.27;8.48;;;16.90;99.90;;;;;;5014427;28;20173;-80
2021/08/01 05:27:03;;;;;;;26.95;9.27;;;16.50;99.90;;;;;;5014689;28;20189;-80
2021/08/01 05:29:29;;;;;;;17.27;9.20;;;16.50;99.90;;;;;;5013530;28;20164;-79
2021/08/01 05:31:55;;;;;;;16.05;7.32;;;16.60;99.90;;;;;;5013745;28;20218;-80
2021/08/01 05:34:21;;;;;;;30.88;9.18;;;16.70;99.90;;;;;;5013761;28;20188;-79
2021/08/01 05:36:47;;;;;;;20.65;8.15;;;17.00;99.90;;;;;;5013139;28;20204;-80
2021/08/01 05:39:13;;;;;;;15.85;8.07;;;17.10;99.90;;;;;;5013619;28;20172;-79
2021/08/01 05:41:39;;;;;;;20.95;7.78;;;17.10;99.90;;;;;;5013223;28;20165;-79
2021/08/01 05:44:05;;;;;;;19.67;7.93;;;17.10;99.90;;;;;;5013689;28;20522;-79
2021/08/01 05:46:30;;;;;;;22.50;8.05;;;17.10;99.90;;;;;;5014198;28;20185;-80
2021/08/01 05:48:56;;;;;;;27.15;8.82;;;16.80;99.90;;;;;;5012223;28;20530;-80
2021/08/01 05:51:22;;;;;;;16.17;8.27;;;16.80;99.90;;;;;;5013981;28;20212;-81
2021/08/01 05:53:48;;;;;;;25.02;8.95;;;16.80;99.90;;;;;;5013841;28;20159;-78
2021/08/01 05:56:14;;;;;;;13.50;7.28;;;17.00;99.90;;;;;;5013313;28;20193;-79
2021/08/01 05:58:41;;;;;;;16.05;7.70;;;17.00;99.90;;;;;;5013578;28;20164;-78
2021/08/01 06:01:14;;;;;;;21.48;8.07;;;16.90;99.90;;;;;;5013395;28;20618;-78
2021/08/01 06:03:41;;;;;;;12.30;7.65;;;16.70;99.90;;;;;;5013031;28;20238;-78
2021/08/01 06:06:15;;;;;;;12.65;7.50;;;17.00;99.90;;;;;;5011852;28;20263;-77
2021/08/01 06:08:42;;;;;;;18.90;8.10;;;17.20;99.90;;;;;;5013326;28;20169;-78
2021/08/01 06:11:08;;;;;;;19.55;7.88;;;17.30;99.90;;;;;;5013031;28;20235;-78
2021/08/01 06:13:34;;;;;;;21.60;8.10;;;17.30;99.90;;;;;;5012926;28;20161;-78
2021/08/01 06:16:00;;;;;;;20.08;7.75;;;17.60;99.90;;;;;;5013126;28;20250;-78
2021/08/01 06:18:26;;;;;;;21.67;8.45;;;17.70;99.90;;;;;;5011377;28;20170;-78
2021/08/01 06:21:14;;;;;;;15.75;9.02;;;17.90;99.90;;;;;;5012910;28;20207;-78
2021/08/01 06:23:42;;;;;;;20.50;7.50;;;18.00;99.90;;;;;;5012602;28;20744;-81
2021/08/01 06:26:08;;;;;;;15.95;7.50;;;18.10;99.90;;;;;;5012047;28;20739;-80
2021/08/01 06:28:34;;;;;;;12.63;7.38;;;18.00;99.90;;;;;;5012606;28;20172;-80
2021/08/01 06:31:04;;;;;;;8.85;7.15;;;18.00;99.90;;;;;;5012648;28;20529;-80
2021/08/01 06:33:30;;;;;;;16.45;8.25;;;17.90;99.90;;;;;;5011374;28;20536;-81
2021/08/01 06:35:56;;;;;;;18.88;7.93;;;17.90;99.90;;;;;;5011546;28;20235;-80
2021/08/01 06:38:22;;;;;;;15.65;7.07;;;17.80;99.90;;;;;;5012983;28;20195;-79
2021/08/01 06:40:48;;;;;;;13.00;6.60;;;17.80;99.90;;;;;;5011664;28;20168;-79
2021/08/01 06:43:14;;;;;;;12.45;7.38;;;17.90;99.90;;;;;;5012368;28;20659;-81
2021/08/01 06:45:39;;;;;;;13.52;6.68;;;18.00;99.90;;;;;;5012391;28;20683;-80
2021/08/01 06:48:06;;;;;;;12.15;6.07;;;18.10;99.90;;;;;;5011869;28;20173;-80
2021/08/01 06:50:33;;;;;;;18.30;7.13;;;18.30;99.90;;;;;;5010731;28;20676;-79
2021/08/01 06:52:58;;;;;;;8.27;6.28;;;18.70;99.90;;;;;;5011667;28;20168;-78
2021/08/01 06:55:24;;;;;;;16.58;8.80;;;18.60;99.90;;;;;;5011547;28;20306;-77
2021/08/01 06:57:50;;;;;;;13.65;8.55;;;18.30;99.90;;;;;;5010706;28;20251;-78
2021/08/01 07:00:20;;;;;;;10.73;6.93;;;18.60;99.90;;;;;;5012941;28;20180;-78
2021/08/01 07:02:51;;;;;;;16.17;8.73;;;18.70;99.90;;;;;;5012612;28;20164;-78
2021/08/01 07:05:16;;;;;;;22.65;11.75;;;18.70;99.90;;;;;;5012767;28;20184;-79
2021/08/01 07:07:42;;;;;;;23.85;9.07;;;18.40;99.90;;;;;;5011647;28;20179;-78
2021/08/01 07:10:08;;;;;;;23.30;8.10;;;18.10;99.90;;;;;;5011938;28;20169;-78
2021/08/01 07:12:35;;;;;;;16.70;8.82;;;18.30;99.90;;;;;;5012250;28;20177;-79
2021/08/01 07:15:01;;;;;;;14.73;9.40;;;18.40;99.90;;;;;;5010097;28;20637;-79
2021/08/01 07:17:28;;;;;;;14.68;7.63;;;18.60;99.90;;;;;;5011576;28;20169;-79
2021/08/01 07:19:54;;;;;;;16.75;10.45;;;18.30;99.90;;;;;;5011565;28;20165;-80
2021/08/01 07:22:20;;;;;;;17.52;10.07;;;18.60;99.90;;;;;;5011538;28;20173;-78
2021/08/01 07:24:45;;;;;;;16.52;10.25;;;18.60;99.90;;;;;;5010342;28;20223;-80
2021/08/01 07:27:11;;;;;;;14.73;8.23;;;18.60;99.90;;;;;;5012741;28;20186;-79
2021/08/01 07:29:36;;;;;;;17.70;9.15;;;18.60;99.90;;;;;;5010893;28;20173;-79
2021/08/01 07:32:02;;;;;;;17.08;9.02;;;18.50;99.90;;;;;;5012311;28;20295;-79
2021/08/01 07:34:28;;;;;;;10.40;8.75;;;18.40;99.90;;;;;;5010848;28;20181;-80
2021/08/01 07:36:54;;;;;;;11.65;8.40;;;18.50;99.90;;;;;;5010712;28;20204;-78
2021/08/01 07:39:19;;;;;;;24.02;9.60;;;18.80;99.90;;;;;;5011227;28;20607;-79
2021/08/01 07:41:45;;;;;;;22.77;8.80;;;18.70;99.90;;;;;;5011854;28;20180;-81
2021/08/01 07:44:11;;;;;;;20.60;9.40;;;18.80;99.90;;;;;;5011845;28;20169;-80
2021/08/01 07:46:36;;;;;;;19.02;8.98;;;19.00;99.90;;;;;;5010793;28;20656;-85
2021/08/01 07:49:02;;;;;;;8.00;7.18;;;19.40;99.90;;;;;;5011513;28;20548;-84
2021/08/01 07:51:27;;;;;;;14.38;8.65;;;19.80;99.90;;;;;;5013084;28;20208;-88
2021/08/01 07:53:53;;;;;;;10.68;8.68;;;19.40;99.90;;;;;;5012883;28;20173;-87
2021/08/01 07:56:19;;;;;;;18.77;8.98;;;19.60;99.90;;;;;;5012079;28;20650;-86
2021/08/01 07:58:44;;;;;;;22.58;10.10;;;19.60;99.90;;;;;;5012476;28;20297;-87
2021/08/01 08:01:10;;;;;;;13.00;8.63;;;19.60;99.90;;;;;;5015204;28;20629;-91
2021/08/01 08:03:35;;;;;;;17.90;9.65;;;19.80;99.90;;;;;;5013657;28;20169;-93
2021/08/01 08:06:05;;;;;;;21.92;10.23;;;20.10;99.90;;;;;;5013702;28;20192;-87
2021/08/01 08:08:31;;;;;;;16.73;10.85;;;20.30;99.90;;;;;;5024086;28;20196;-86
2021/08/01 08:11:02;;;;;;;20.15;9.73;;;20.30;99.90;;;;;;5023084;28;20196;-90
2021/08/01 08:13:30;;;;;;;10.35;8.75;;;20.50;99.90;;;;;;5024795;28;20179;-92
2021/08/01 08:15:57;;;;;;;17.50;10.27;;;20.60;99.90;;;;;;5025804;28;20207;-88
2021/08/01 08:18:23;;;;;;;16.15;10.70;;;20.30;99.90;;;;;;5023757;28;20169;-92
2021/08/01 08:23:18;;;;;;;23.50;11.38;;;19.80;99.90;;;;;;5010894;28;20252;-88
2021/08/01 08:25:45;;;;;;;22.42;11.57;;;19.70;99.90;;;;;;5026922;28;20548;-88
2021/08/01 08:28:11;;;;;;;16.50;11.82;;;19.50;99.90;;;;;;5028588;28;20188;-94
2021/08/01 08:30:38;;;;;;;20.30;12.68;;;19.50;99.90;;;;;;5022755;28;20219;-87
2021/08/01 08:33:07;;;;;;;19.20;11.20;;;19.60;99.90;;;;;;5028135;28;20719;-87
2021/08/01 08:35:36;;;;;;;17.45;11.63;;;19.80;99.90;;;;;;5030956;28;20212;-86
2021/08/01 08:38:01;;;;;;;14.90;11.98;;;20.00;99.90;;;;;;5002220;28;20525;-87
2021/08/01 08:40:35;;;;;;;18.55;11.10;;;20.20;99.90;;;;;;5017581;28;20253;-86
2021/08/01 08:43:00;;;;;;;23.92;12.48;;;20.20;99.90;;;;;;5017443;28;20243;-90
2021/08/01 08:45:31;;;;;;;19.02;11.43;;;20.50;99.90;;;;;;5022791;28;20184;-87
2021/08/01 08:47:57;;;;;;;12.23;10.88;;;20.50;99.90;;;;;;5025361;28;20181;-87
2021/08/01 08:50:24;;;;;;;13.85;10.68;;;20.70;99.90;;;;;;5014716;28;20212;-92
2021/08/01 08:53:04;;;;;;;18.08;9.93;;;20.70;99.90;;;;;;5030371;28;20175;-88
2021/08/01 08:55:34;;;;;;;24.98;11.40;;;20.50;99.90;;;;;;5026799;28;20246;-88
2021/08/01 08:58:39;;;;;;;13.23;10.88;;;20.80;99.90;;;;;;5021443;28;20268;-88
2021/08/01 09:01:05;;;;;;;15.00;11.50;;;20.90;99.90;;;;;;5020237;28;20161;-90
2021/08/01 09:03:35;;;;;;;12.02;10.50;;;21.00;99.90;;;;;;5025591;28;20183;-87
2021/08/01 09:06:01;;;;;;;18.00;10.30;;;20.90;99.90;;;;;;5022472;28;20220;-88
2021/08/01 09:08:27;;;;;;;11.68;9.73;;;20.70;99.90;;;;;;5015408;28;20534;-88
2021/08/01 09:10:58;;;;;;;14.02;9.98;;;20.80;99.90;;;;;;5015865;28;20208;-88
2021/08/01 09:13:46;;;;;;;18.00;10.70;;;20.80;99.90;;;;;;5015582;28;20208;-88
2021/08/01 09:16:12;;;;;;;11.23;9.00;;;21.60;99.90;;;;;;5014956;28;20201;-87
2021/08/01 09:18:38;;;;;;;25.58;10.07;;;21.70;99.90;;;;;;5015447;28;20255;-89
2021/08/01 09:21:03;;;;;;;12.93;9.65;;;21.70;99.90;;;;;;5015696;28;20204;-87
2021/08/01 09:23:30;;;;;;;10.52;8.90;;;22.00;99.90;;;;;;5015502;28;20263;-87
2021/08/01 09:26:02;;;;;;;16.50;9.20;;;22.20;99.90;;;;;;5014634;28;20199;-89
2021/08/01 09:28:28;;;;;;;15.82;9.18;;;22.40;99.90;;;;;;5015442;28;20647;-90
2021/08/01 09:31:03;;;;;;;12.43;9.13;;;22.10;99.90;;;;;;5015636;28;20291;-90
2021/08/01 09:33:44;;;;;;;12.70;9.82;;;21.80;99.90;;;;;;5015152;28;20187;-91
2021/08/01 09:36:22;;;;;;;13.35;9.43;;;22.30;99.90;;;;;;5016672;28;20208;-90
2021/08/01 09:39:04;;;;;;;10.20;9.00;;;22.60;99.90;;;;;;5017048;28;20597;-88
2021/08/01 09:41:32;;;;;;;10.90;8.60;;;22.70;99.90;;;;;;5017007;28;20647;-88
2021/08/01 09:44:00;;;;;;;12.13;8.45;;;22.70;99.90;;;;;;5016146;28;20172;-88
2021/08/01 09:46:47;;;;;;;14.40;9.00;;;22.80;99.90;;;;;;5029371;28;20271;-88
2021/08/01 09:49:18;;;;;;;7.65;6.65;;;22.80;99.90;;;;;;5039625;28;20155;-87
2021/08/01 09:51:56;;;;;;;17.33;6.90;;;22.70;99.90;;;;;;5038773;28;20232;-88
2021/08/01 09:54:24;;;;;;;8.68;5.38;;;22.60;99.90;;;;;;5037638;28;20272;-92
2021/08/01 09:57:05;;;;;;;11.10;4.95;;;22.80;99.90;;;;;;5034442;28;20214;-91
2021/08/01 09:59:32;;;;;;;6.28;3.83;;;22.70;99.90;;;;;;5021036;28;20169;-90
2021/08/01 10:02:01;;;;;;;5.80;4.07;;;22.40;99.90;;;;;;5018155;28;20164;-92
2021/08/01 10:04:30;;;;;;;6.25;4.32;;;22.50;99.90;;;;;;5031250;28;20176;-90
2021/08/01 10:07:02;;;;;;;10.95;3.63;;;22.70;99.90;;;;;;5036860;28;20173;-86
2021/08/01 10:09:28;;;;;;;5.38;3.35;;;23.00;99.90;;;;;;5031239;28;20174;-83
2021/08/01 10:11:54;;;;;;;6.40;3.15;;;22.70;99.90;;;;;;5030668;28;20208;-84
2021/08/01 10:14:22;;;;;;;5.72;3.08;;;22.60;99.90;;;;;;5029066;28;20199;-84
2021/08/01 10:16:48;;;;;;;8.90;3.40;;;23.10;99.90;;;;;;5036285;28;20203;-83
2021/08/01 10:19:14;;;;;;;3.60;2.70;;;23.70;99.90;;;;;;5032102;28;20184;-82
2021/08/01 10:21:43;;;;;;;2.63;2.30;;;24.00;99.90;;;;;;5030332;28;20173;-83
2021/08/01 10:24:13;;;;;;;7.95;3.17;;;24.70;99.90;;;;;;5029558;28;20192;-85
2021/08/01 10:26:44;;;;;;;6.05;2.88;;;24.60;99.90;;;;;;5032853;28;20660;-85
2021/08/01 10:29:13;;;;;;;3.17;2.88;;;24.70;99.90;;;;;;5030351;28;20175;-83
2021/08/01 10:31:50;;;;;;;3.00;2.38;;;24.70;99.90;;;;;;5019905;28;20216;-87
2021/08/01 10:34:25;;;;;;;4.43;2.92;;;24.10;99.90;;;;;;5016352;28;20165;-85
2021/08/01 10:36:54;;;;;;;6.15;2.35;;;24.00;99.90;;;;;;5017778;28;20203;-87
2021/08/01 10:39:21;;;;;;;4.22;3.17;;;23.10;99.90;;;;;;5020707;28;20168;-87
2021/08/01 10:41:48;;;;;;;4.03;3.05;;;22.90;99.90;;;;;;5015608;28;20169;-88
2021/08/01 10:44:17;;;;;;;3.67;3.33;;;22.70;99.90;;;;;;5015540;28;20168;-87
2021/08/01 10:46:43;;;;;;;4.05;3.38;;;22.80;99.90;;;;;;5014022;28;20196;-86
2021/08/01 10:49:11;;;;;;;5.72;3.17;;;22.90;99.90;;;;;;5014171;28;20177;-85
2021/08/01 10:51:37;;;;;;;4.78;3.47;;;23.20;99.90;;;;;;5014530;28;20234;-89
2021/08/01 10:54:33;;;;;;;3.85;3.50;;;23.40;99.90;;;;;;5027085;28;20177;-91
2021/08/01 10:57:18;;;;;;;3.33;2.90;;;23.50;99.90;;;;;;5018874;28;20197;-90
2021/08/01 10:59:44;;;;;;;4.10;3.75;;;23.40;99.90;;;;;;5021853;28;20214;-91
2021/08/01 11:02:22;;;;;;;5.30;3.17;;;23.60;99.90;;;;;;5017733;28;20521;-88
2021/08/01 11:04:53;;;;;;;4.28;3.88;;;23.60;99.90;;;;;;5020151;28;20204;-89
2021/08/01 11:07:28;;;;;;;7.72;3.95;;;23.20;99.90;;;;;;5014610;28;20168;-88
2021/08/01 11:10:12;;;;;;;4.60;3.38;;;22.90;99.90;;;;;;5015784;28;20172;-89
2021/08/01 11:12:41;;;;;;;3.30;2.85;;;21.70;99.90;;;;;;5013750;28;20196;-87
2021/08/01 11:15:08;;;;;;;7.07;2.63;;;20.90;99.90;;;;;;5015332;28;20238;-87
2021/08/01 11:17:43;;;;;;;6.28;3.25;;;20.40;99.90;;;;;;5014512;28;20231;-88
2021/08/01 11:20:15;;;;;;;2.83;2.55;;;20.00;99.90;;;;;;5013533;28;20172;-86
2021/08/01 11:22:42;;;;;;;4.22;2.53;;;19.40;99.90;;;;;;5013245;28;20276;-89
2021/08/01 11:25:18;;;;;;;2.95;2.47;;;19.00;99.90;;;;;;5014231;28;20197;-87
2021/08/01 11:28:12;;;;;;;3.30;2.10;;;18.80;99.90;;;;;;5013348;28;20176;-89
2021/08/01 11:30:53;;;;;;;7.00;3.47;;;18.70;99.90;;;;;;5015583;28;20214;-85
2021/08/01 11:33:34;;;;;;;2.80;2.40;;;18.60;99.90;;;;;;5017267;28;20231;-88
2021/08/01 11:36:17;;;;;;;2.67;1.90;;;18.50;99.90;;;;;;5015685;28;20310;-87
2021/08/01 11:38:52;;;;;;;1.77;1.67;;;18.40;99.90;;;;;;5014330;28;20180;-87
2021/08/01 11:44:16;;;;;;;2.33;2.13;;;18.30;99.90;;;;;;5019946;28;20248;-87
2021/08/01 11:47:04;;;;;;;2.17;1.90;;;18.30;99.90;;;;;;5017189;28;20184;-88
2021/08/01 11:49:43;;;;;;;5.25;2.65;;;18.50;99.90;;;;;;5020062;28;20168;-88
2021/08/01 11:52:10;;;;;;;2.53;2.33;;;18.60;99.90;;;;;;5020038;28;20204;-87
2021/08/01 11:54:36;;;;;;;2.45;2.25;;;18.80;99.90;;;;;;5019883;28;20180;-86
2021/08/01 11:57:08;;;;;;;2.95;2.65;;;18.90;99.90;;;;;;5017827;28;20521;-86
2021/08/01 11:59:34;;;;;;;3.65;2.90;;;19.10;99.90;;;;;;5018895;28;20173;-87
2021/08/01 12:02:16;;;;;;;4.07;2.70;;;19.10;99.90;;;;;;5019650;28;20199;-88
2021/08/01 12:05:11;;;;;;;3.25;2.95;;;19.10;99.90;;;;;;5016915;28;20172;-87
2021/08/01 12:07:50;;;;;;;3.88;2.70;;;19.50;99.90;;;;;;5003275;28;20184;-87
2021/08/01 12:10:26;;;;;;;4.10;2.80;;;19.70;99.90;;;;;;5015378;28;20180;-88
2021/08/01 12:12:54;;;;;;;2.85;2.63;;;19.80;99.90;;;;;;5015772;28;20171;-88
2021/08/01 12:15:22;;;;;;;2.72;2.53;;;20.00;99.90;;;;;;5017830;28;20192;-89
2021/08/01 12:17:49;;;;;;;5.38;2.67;;;20.10;99.90;;;;;;5016668;28;20652;-89
2021/08/01 12:20:15;;;;;;;9.88;2.55;;;20.00;99.90;;;;;;5015750;28;20598;-89
2021/08/01 12:22:51;;;;;;;3.30;3.00;;;20.30;99.90;;;;;;5016042;28;20168;-88
2021/08/01 12:25:16;;;;;;;5.63;2.83;;;20.30;99.90;;;;;;5015732;28;20254;-86
2021/08/01 12:27:43;;;;;;;4.13;3.67;;;20.10;99.90;;;;;;5015958;28;20185;-87
2021/08/01 12:30:17;;;;;;;3.92;3.53;;;20.00;99.90;;;;;;5016306;28;20171;-85
2021/08/01 12:32:48;;;;;;;3.33;3.10;;;20.30;99.90;;;;;;5017928;28;20156;-89
2021/08/01 12:35:15;;;;;;;3.88;3.47;;;20.30;99.90;;;;;;5017765;28;20211;-89
2021/08/01 12:38:03;;;;;;;5.47;3.22;;;20.20;99.90;;;;;;5026572;28;20266;-90
2021/08/01 12:40:38;;;;;;;6.78;4.03;;;20.40;99.90;;;;;;5038969;28;20161;-84
2021/08/01 12:43:08;;;;;;;10.80;3.42;;;20.60;99.90;;;;;;5039885;28;20168;-85
2021/08/01 12:45:36;;;;;;;6.57;3.22;;;20.70;99.90;;;;;;5037124;28;20248;-90
2021/08/01 12:48:05;;;;;;;3.53;3.22;;;21.00;99.90;;;;;;5029254;28;20176;-87
2021/08/01 12:50:32;;;;;;;5.10;3.10;;;21.40;99.90;;;;;;5032756;28;20188;-86
2021/08/01 12:52:59;;;;;;;3.53;3.17;;;21.60;99.90;;;;;;5037319;28;20244;-90
2021/08/01 12:55:25;;;;;;;3.47;3.00;;;21.60;99.90;;;;;;5035974;28;20201;-90